sensor_id;sensor_type;location;lat;lon;timestamp;P1;durP1;ratioP1;P2;durP2;ratioP2
17844;SDS011;9047;53.486;10.218;2024-02-16T00:01:02;11.55;;;7.05;;
17844;SDS011;9047;53.486;10.218;2024-02-16T00:03:29;10.73;;;6.80;;
17844;SDS011;9047;53.486;10.218;2024-02-16T00:05:57;9.93;;;6.50;;
17844;SDS011;9047;53.486;10.218;2024-02-16T00:08:27;8.75;;;6.20;;
17844;SDS011;9047;53.486;10.218;2024-02-16T00:10:54;10.10;;;6.30;;
17844;SDS011;9047;53.486;10.218;2024-02-16T00:13:21;10.77;;;6.40;;
17844;SDS011;9047;53.486;10.218;2024-02-16T00:15:49;12.73;;;6.65;;
17844;SDS011;9047;53.486;10.218;2024-02-16T00:18:16;13.15;;;6.65;;
17844;SDS011;9047;53.486;10.218;2024-02-16T00:20:43;7.32;;;5.80;;
17844;SDS011;9047;53.486;10.218;2024-02-16T00:23:11;9.93;;;5.90;;
17844;SDS011;9047;53.486;10.218;2024-02-16T00:25:39;11.80;;;6.38;;
17844;SDS011;9047;53.486;10.218;2024-02-16T00:30:34;12.07;;;6.22;;
17844;SDS011;9047;53.486;10.218;2024-02-16T00:33:01;11.10;;;6.30;;
17844;SDS011;9047;53.486;10.218;2024-02-16T00:35:29;11.98;;;6.78;;
17844;SDS011;9047;53.486;10.218;2024-02-16T00:37:58;10.43;;;6.55;;
17844;SDS011;9047;53.486;10.218;2024-02-16T00:40:25;11.68;;;6.25;;
17844;SDS011;9047;53.486;10.218;2024-02-16T00:42:54;10.25;;;5.90;;
17844;SDS011;9047;53.486;10.218;2024-02-16T00:45:21;7.72;;;5.72;;
17844;SDS011;9047;53.486;10.218;2024-02-16T00:47:48;8.95;;;5.80;;
17844;SDS011;9047;53.486;10.218;2024-02-16T00:50:15;8.50;;;5.68;;
17844;SDS011;9047;53.486;10.218;2024-02-16T00:52:44;11.88;;;6.20;;
17844;SDS011;9047;53.486;10.218;2024-02-16T00:55:11;9.00;;;6.00;;
17844;SDS011;9047;53.486;10.218;2024-02-16T00:57:39;8.13;;;5.72;;
17844;SDS011;9047;53.486;10.218;2024-02-16T01:00:08;10.73;;;5.72;;
17844;SDS011;9047;53.486;10.218;2024-02-16T01:02:36;10.27;;;5.93;;
17844;SDS011;9047;53.486;10.218;2024-02-16T01:05:04;11.07;;;6.03;;
17844;SDS011;9047;53.486;10.218;2024-02-16T01:07:31;11.55;;;5.90;;
17844;SDS011;9047;53.486;10.218;2024-02-16T01:09:58;8.27;;;5.88;;
17844;SDS011;9047;53.486;10.218;2024-02-16T01:12:28;9.68;;;6.20;;
17844;SDS011;9047;53.486;10.218;2024-02-16T01:14:56;8.32;;;5.95;;
17844;SDS011;9047;53.486;10.218;2024-02-16T01:17:24;11.07;;;5.53;;
17844;SDS011;9047;53.486;10.218;2024-02-16T01:19:51;9.20;;;5.85;;
17844;SDS011;9047;53.486;10.218;2024-02-16T01:22:18;10.70;;;6.00;;
17844;SDS011;9047;53.486;10.218;2024-02-16T01:24:45;9.10;;;5.97;;
17844;SDS011;9047;53.486;10.218;2024-02-16T01:27:14;8.90;;;5.95;;
17844;SDS011;9047;53.486;10.218;2024-02-16T01:29:42;8.20;;;5.85;;
17844;SDS011;9047;53.486;10.218;2024-02-16T01:32:09;8.05;;;5.40;;
17844;SDS011;9047;53.486;10.218;2024-02-16T01:34:38;11.55;;;5.90;;
17844;SDS011;9047;53.486;10.218;2024-02-16T01:37:04;10.07;;;5.80;;
17844;SDS011;9047;53.486;10.218;2024-02-16T01:39:34;9.45;;;5.93;;
17844;SDS011;9047;53.486;10.218;2024-02-16T01:42:01;10.50;;;5.47;;
17844;SDS011;9047;53.486;10.218;2024-02-16T01:44:28;11.40;;;6.07;;
17844;SDS011;9047;53.486;10.218;2024-02-16T01:46:55;11.13;;;5.78;;
17844;SDS011;9047;53.486;10.218;2024-02-16T01:49:22;8.63;;;6.07;;
17844;SDS011;9047;53.486;10.218;2024-02-16T01:51:51;8.80;;;5.60;;
17844;SDS011;9047;53.486;10.218;2024-02-16T01:54:18;9.73;;;5.93;;
17844;SDS011;9047;53.486;10.218;2024-02-16T01:56:44;11.80;;;5.95;;
17844;SDS011;9047;53.486;10.218;2024-02-16T01:59:12;7.35;;;5.38;;
17844;SDS011;9047;53.486;10.218;2024-02-16T02:01:40;12.13;;;6.10;;
17844;SDS011;9047;53.486;10.218;2024-02-16T02:04:06;10.50;;;5.57;;
17844;SDS011;9047;53.486;10.218;2024-02-16T02:06:33;10.52;;;6.03;;
17844;SDS011;9047;53.486;10.218;2024-02-16T02:09:02;12.00;;;5.72;;
17844;SDS011;9047;53.486;10.218;2024-02-16T02:11:29;11.50;;;6.10;;
17844;SDS011;9047;53.486;10.218;2024-02-16T02:13:59;9.43;;;5.90;;
17844;SDS011;9047;53.486;10.218;2024-02-16T02:16:26;11.85;;;6.38;;
17844;SDS011;9047;53.486;10.218;2024-02-16T02:18:52;8.75;;;5.93;;
17844;SDS011;9047;53.486;10.218;2024-02-16T02:21:21;11.15;;;6.40;;
17844;SDS011;9047;53.486;10.218;2024-02-16T02:23:50;8.77;;;5.75;;
17844;SDS011;9047;53.486;10.218;2024-02-16T02:26:17;10.07;;;6.00;;
17844;SDS011;9047;53.486;10.218;2024-02-16T02:28:43;12.52;;;7.05;;
17844;SDS011;9047;53.486;10.218;2024-02-16T02:31:10;11.48;;;6.50;;
17844;SDS011;9047;53.486;10.218;2024-02-16T02:33:37;11.10;;;6.35;;
17844;SDS011;9047;53.486;10.218;2024-02-16T02:36:05;10.25;;;5.97;;
17844;SDS011;9047;53.486;10.218;2024-02-16T02:38:32;11.35;;;6.28;;
17844;SDS011;9047;53.486;10.218;2024-02-16T02:41:01;11.25;;;6.72;;
17844;SDS011;9047;53.486;10.218;2024-02-16T02:43:30;9.73;;;6.30;;
17844;SDS011;9047;53.486;10.218;2024-02-16T02:45:58;10.60;;;6.20;;
17844;SDS011;9047;53.486;10.218;2024-02-16T02:48:25;10.75;;;6.47;;
17844;SDS011;9047;53.486;10.218;2024-02-16T02:50:52;11.27;;;6.18;;
17844;SDS011;9047;53.486;10.218;2024-02-16T02:53:19;10.25;;;6.43;;
17844;SDS011;9047;53.486;10.218;2024-02-16T02:55:46;11.43;;;6.65;;
17844;SDS011;9047;53.486;10.218;2024-02-16T03:01:01;8.57;;;5.85;;
17844;SDS011;9047;53.486;10.218;2024-02-16T03:03:31;11.63;;;6.32;;
17844;SDS011;9047;53.486;10.218;2024-02-16T03:05:59;11.27;;;6.80;;
17844;SDS011;9047;53.486;10.218;2024-02-16T03:08:26;10.68;;;6.18;;
17844;SDS011;9047;53.486;10.218;2024-02-16T03:10:55;9.82;;;6.13;;
17844;SDS011;9047;53.486;10.218;2024-02-16T03:13:26;11.52;;;5.60;;
17844;SDS011;9047;53.486;10.218;2024-02-16T03:15:54;10.18;;;5.88;;
17844;SDS011;9047;53.486;10.218;2024-02-16T03:18:21;14.30;;;6.53;;
17844;SDS011;9047;53.486;10.218;2024-02-16T03:20:49;10.77;;;6.00;;
17844;SDS011;9047;53.486;10.218;2024-02-16T03:23:16;9.75;;;6.00;;
17844;SDS011;9047;53.486;10.218;2024-02-16T03:25:43;12.45;;;6.40;;
17844;SDS011;9047;53.486;10.218;2024-02-16T03:28:11;9.25;;;6.10;;
17844;SDS011;9047;53.486;10.218;2024-02-16T03:30:38;9.88;;;5.97;;
17844;SDS011;9047;53.486;10.218;2024-02-16T03:33:07;11.85;;;6.15;;
17844;SDS011;9047;53.486;10.218;2024-02-16T03:35:34;7.88;;;5.57;;
17844;SDS011;9047;53.486;10.218;2024-02-16T03:38:01;9.57;;;5.70;;
17844;SDS011;9047;53.486;10.218;2024-02-16T03:40:28;11.55;;;5.90;;
17844;SDS011;9047;53.486;10.218;2024-02-16T03:42:55;10.27;;;5.55;;
17844;SDS011;9047;53.486;10.218;2024-02-16T03:45:22;8.52;;;5.88;;
17844;SDS011;9047;53.486;10.218;2024-02-16T03:47:49;10.20;;;5.88;;
17844;SDS011;9047;53.486;10.218;2024-02-16T03:50:19;7.22;;;5.85;;
17844;SDS011;9047;53.486;10.218;2024-02-16T03:52:45;9.55;;;5.45;;
17844;SDS011;9047;53.486;10.218;2024-02-16T03:55:12;8.32;;;5.93;;
17844;SDS011;9047;53.486;10.218;2024-02-16T03:57:39;13.55;;;7.28;;
17844;SDS011;9047;53.486;10.218;2024-02-16T04:00:07;7.85;;;6.10;;
17844;SDS011;9047;53.486;10.218;2024-02-16T04:02:34;12.55;;;6.35;;
17844;SDS011;9047;53.486;10.218;2024-02-16T04:05:02;11.38;;;6.93;;
17844;SDS011;9047;53.486;10.218;2024-02-16T04:07:31;10.73;;;6.30;;
17844;SDS011;9047;53.486;10.218;2024-02-16T04:09:57;8.73;;;5.53;;
17844;SDS011;9047;53.486;10.218;2024-02-16T04:12:25;10.30;;;5.88;;
17844;SDS011;9047;53.486;10.218;2024-02-16T04:14:53;9.25;;;5.95;;
17844;SDS011;9047;53.486;10.218;2024-02-16T04:17:20;9.68;;;5.75;;
17844;SDS011;9047;53.486;10.218;2024-02-16T04:19:47;9.20;;;5.90;;
17844;SDS011;9047;53.486;10.218;2024-02-16T04:22:14;7.80;;;5.40;;
17844;SDS011;9047;53.486;10.218;2024-02-16T04:24:44;8.85;;;5.38;;
17844;SDS011;9047;53.486;10.218;2024-02-16T04:27:11;10.32;;;5.55;;
17844;SDS011;9047;53.486;10.218;2024-02-16T04:29:40;9.10;;;5.78;;
17844;SDS011;9047;53.486;10.218;2024-02-16T04:32:07;9.15;;;5.13;;
17844;SDS011;9047;53.486;10.218;2024-02-16T04:34:33;8.15;;;4.57;;
17844;SDS011;9047;53.486;10.218;2024-02-16T04:37:00;5.78;;;4.75;;
17844;SDS011;9047;53.486;10.218;2024-02-16T04:39:27;9.95;;;5.57;;
17844;SDS011;9047;53.486;10.218;2024-02-16T04:41:58;8.13;;;5.03;;
17844;SDS011;9047;53.486;10.218;2024-02-16T04:44:25;8.45;;;5.47;;
17844;SDS011;9047;53.486;10.218;2024-02-16T04:46:53;10.05;;;5.00;;
17844;SDS011;9047;53.486;10.218;2024-02-16T04:49:20;8.23;;;4.95;;
17844;SDS011;9047;53.486;10.218;2024-02-16T04:51:47;7.13;;;4.97;;
17844;SDS011;9047;53.486;10.218;2024-02-16T04:54:14;7.10;;;4.85;;
17844;SDS011;9047;53.486;10.218;2024-02-16T04:56:41;8.18;;;4.60;;
17844;SDS011;9047;53.486;10.218;2024-02-16T04:59:09;7.85;;;4.78;;
17844;SDS011;9047;53.486;10.218;2024-02-16T05:01:36;6.50;;;4.07;;
17844;SDS011;9047;53.486;10.218;2024-02-16T05:04:03;10.77;;;4.97;;
17844;SDS011;9047;53.486;10.218;2024-02-16T05:06:30;8.40;;;4.90;;
17844;SDS011;9047;53.486;10.218;2024-02-16T05:08:57;9.05;;;5.18;;
17844;SDS011;9047;53.486;10.218;2024-02-16T05:11:24;7.32;;;4.68;;
17844;SDS011;9047;53.486;10.218;2024-02-16T05:13:52;9.27;;;4.85;;
17844;SDS011;9047;53.486;10.218;2024-02-16T05:16:20;8.77;;;4.30;;
17844;SDS011;9047;53.486;10.218;2024-02-16T05:18:47;6.35;;;4.03;;
17844;SDS011;9047;53.486;10.218;2024-02-16T05:21:14;8.43;;;3.95;;
17844;SDS011;9047;53.486;10.218;2024-02-16T05:23:41;5.75;;;3.85;;
17844;SDS011;9047;53.486;10.218;2024-02-16T05:26:08;5.93;;;3.75;;
17844;SDS011;9047;53.486;10.218;2024-02-16T05:28:35;6.68;;;3.63;;
17844;SDS011;9047;53.486;10.218;2024-02-16T05:31:04;6.32;;;4.28;;
17844;SDS011;9047;53.486;10.218;2024-02-16T05:33:42;6.35;;;3.90;;
17844;SDS011;9047;53.486;10.218;2024-02-16T05:36:10;6.10;;;3.80;;
17844;SDS011;9047;53.486;10.218;2024-02-16T05:38:37;7.55;;;3.58;;
17844;SDS011;9047;53.486;10.218;2024-02-16T05:41:08;7.05;;;3.75;;
17844;SDS011;9047;53.486;10.218;2024-02-16T05:43:36;5.97;;;3.50;;
17844;SDS011;9047;53.486;10.218;2024-02-16T05:46:06;7.20;;;3.95;;
17844;SDS011;9047;53.486;10.218;2024-02-16T05:48:33;7.65;;;3.90;;
17844;SDS011;9047;53.486;10.218;2024-02-16T05:51:05;6.38;;;4.20;;
17844;SDS011;9047;53.486;10.218;2024-02-16T05:53:33;7.05;;;3.95;;
17844;SDS011;9047;53.486;10.218;2024-02-16T05:56:01;7.93;;;4.25;;
17844;SDS011;9047;53.486;10.218;2024-02-16T05:58:28;7.03;;;4.10;;
17844;SDS011;9047;53.486;10.218;2024-02-16T06:00:55;7.05;;;3.88;;
17844;SDS011;9047;53.486;10.218;2024-02-16T06:03:22;7.20;;;3.55;;
17844;SDS011;9047;53.486;10.218;2024-02-16T06:05:51;8.07;;;3.60;;
17844;SDS011;9047;53.486;10.218;2024-02-16T06:08:20;6.90;;;3.47;;
17844;SDS011;9047;53.486;10.218;2024-02-16T06:10:51;6.72;;;3.20;;
17844;SDS011;9047;53.486;10.218;2024-02-16T06:13:22;7.03;;;3.40;;
17844;SDS011;9047;53.486;10.218;2024-02-16T06:15:49;8.40;;;3.95;;
17844;SDS011;9047;53.486;10.218;2024-02-16T06:18:16;6.53;;;3.30;;
17844;SDS011;9047;53.486;10.218;2024-02-16T06:20:44;6.00;;;3.00;;
17844;SDS011;9047;53.486;10.218;2024-02-16T06:23:11;6.40;;;3.03;;
17844;SDS011;9047;53.486;10.218;2024-02-16T06:25:42;5.38;;;3.08;;
17844;SDS011;9047;53.486;10.218;2024-02-16T06:28:09;4.97;;;3.10;;
17844;SDS011;9047;53.486;10.218;2024-02-16T06:30:38;6.88;;;3.22;;
17844;SDS011;9047;53.486;10.218;2024-02-16T06:33:05;7.88;;;3.28;;
17844;SDS011;9047;53.486;10.218;2024-02-16T06:35:33;6.13;;;3.35;;
17844;SDS011;9047;53.486;10.218;2024-02-16T06:38:00;4.95;;;3.60;;
17844;SDS011;9047;53.486;10.218;2024-02-16T06:40:27;5.20;;;3.25;;
17844;SDS011;9047;53.486;10.218;2024-02-16T06:42:57;7.63;;;3.20;;
17844;SDS011;9047;53.486;10.218;2024-02-16T06:45:24;5.00;;;3.08;;
17844;SDS011;9047;53.486;10.218;2024-02-16T06:47:51;6.00;;;3.30;;
17844;SDS011;9047;53.486;10.218;2024-02-16T06:50:18;5.90;;;3.25;;
17844;SDS011;9047;53.486;10.218;2024-02-16T06:52:45;6.55;;;3.40;;
17844;SDS011;9047;53.486;10.218;2024-02-16T06:55:12;6.43;;;3.17;;
17844;SDS011;9047;53.486;10.218;2024-02-16T06:57:40;6.10;;;3.25;;
17844;SDS011;9047;53.486;10.218;2024-02-16T07:00:13;7.63;;;3.58;;
17844;SDS011;9047;53.486;10.218;2024-02-16T07:02:41;5.35;;;3.20;;
17844;SDS011;9047;53.486;10.218;2024-02-16T07:05:09;5.80;;;3.00;;
17844;SDS011;9047;53.486;10.218;2024-02-16T07:07:35;7.20;;;3.22;;
17844;SDS011;9047;53.486;10.218;2024-02-16T07:10:02;6.13;;;3.25;;
17844;SDS011;9047;53.486;10.218;2024-02-16T07:12:32;5.07;;;3.33;;
17844;SDS011;9047;53.486;10.218;2024-02-16T07:15:02;7.13;;;3.70;;
17844;SDS011;9047;53.486;10.218;2024-02-16T07:17:32;6.85;;;3.25;;
17844;SDS011;9047;53.486;10.218;2024-02-16T07:19:59;8.70;;;3.40;;
17844;SDS011;9047;53.486;10.218;2024-02-16T07:22:32;8.52;;;3.47;;
17844;SDS011;9047;53.486;10.218;2024-02-16T07:24:59;7.15;;;3.42;;
17844;SDS011;9047;53.486;10.218;2024-02-16T07:27:26;5.15;;;3.45;;
17844;SDS011;9047;53.486;10.218;2024-02-16T07:29:55;6.72;;;3.40;;
17844;SDS011;9047;53.486;10.218;2024-02-16T07:32:25;7.43;;;3.67;;
17844;SDS011;9047;53.486;10.218;2024-02-16T07:34:54;5.10;;;3.10;;
17844;SDS011;9047;53.486;10.218;2024-02-16T07:37:20;4.63;;;2.90;;
17844;SDS011;9047;53.486;10.218;2024-02-16T07:39:48;6.80;;;3.65;;
17844;SDS011;9047;53.486;10.218;2024-02-16T07:42:16;5.43;;;3.38;;
17844;SDS011;9047;53.486;10.218;2024-02-16T07:44:43;4.13;;;2.97;;
17844;SDS011;9047;53.486;10.218;2024-02-16T07:47:10;6.38;;;3.10;;
17844;SDS011;9047;53.486;10.218;2024-02-16T07:49:38;5.97;;;3.47;;
17844;SDS011;9047;53.486;10.218;2024-02-16T07:52:07;7.30;;;3.60;;
17844;SDS011;9047;53.486;10.218;2024-02-16T07:54:35;5.68;;;3.08;;
17844;SDS011;9047;53.486;10.218;2024-02-16T07:57:02;4.95;;;3.30;;
17844;SDS011;9047;53.486;10.218;2024-02-16T07:59:29;5.82;;;3.38;;
17844;SDS011;9047;53.486;10.218;2024-02-16T08:01:56;5.32;;;2.70;;
17844;SDS011;9047;53.486;10.218;2024-02-16T08:04:25;5.43;;;3.10;;
17844;SDS011;9047;53.486;10.218;2024-02-16T08:06:51;6.20;;;2.75;;
17844;SDS011;9047;53.486;10.218;2024-02-16T08:09:22;5.65;;;3.30;;
17844;SDS011;9047;53.486;10.218;2024-02-16T08:11:49;7.38;;;2.92;;
17844;SDS011;9047;53.486;10.218;2024-02-16T08:14:17;5.03;;;3.10;;
17844;SDS011;9047;53.486;10.218;2024-02-16T08:16:43;5.40;;;2.72;;
17844;SDS011;9047;53.486;10.218;2024-02-16T08:19:10;3.92;;;2.53;;
17844;SDS011;9047;53.486;10.218;2024-02-16T08:21:39;5.75;;;2.78;;
17844;SDS011;9047;53.486;10.218;2024-02-16T08:24:09;4.55;;;2.83;;
17844;SDS011;9047;53.486;10.218;2024-02-16T08:26:39;5.50;;;2.78;;
17844;SDS011;9047;53.486;10.218;2024-02-16T08:29:06;5.50;;;2.80;;
17844;SDS011;9047;53.486;10.218;2024-02-16T08:31:35;5.10;;;2.10;;
17844;SDS011;9047;53.486;10.218;2024-02-16T08:34:02;5.18;;;2.55;;
17844;SDS011;9047;53.486;10.218;2024-02-16T08:36:32;4.68;;;2.30;;
17844;SDS011;9047;53.486;10.218;2024-02-16T08:38:59;4.97;;;2.42;;
17844;SDS011;9047;53.486;10.218;2024-02-16T08:41:28;5.22;;;2.40;;
17844;SDS011;9047;53.486;10.218;2024-02-16T08:43:56;5.22;;;2.65;;
17844;SDS011;9047;53.486;10.218;2024-02-16T08:46:24;4.38;;;2.40;;
17844;SDS011;9047;53.486;10.218;2024-02-16T08:48:52;5.05;;;2.65;;
17844;SDS011;9047;53.486;10.218;2024-02-16T08:51:19;4.38;;;2.35;;
17844;SDS011;9047;53.486;10.218;2024-02-16T08:53:46;5.53;;;2.58;;
17844;SDS011;9047;53.486;10.218;2024-02-16T08:56:22;5.32;;;2.33;;
17844;SDS011;9047;53.486;10.218;2024-02-16T08:58:49;6.22;;;2.58;;
17844;SDS011;9047;53.486;10.218;2024-02-16T09:01:18;5.00;;;2.55;;
17844;SDS011;9047;53.486;10.218;2024-02-16T09:03:45;4.88;;;2.38;;
17844;SDS011;9047;53.486;10.218;2024-02-16T09:06:12;4.80;;;2.50;;
17844;SDS011;9047;53.486;10.218;2024-02-16T09:08:39;5.30;;;2.20;;
17844;SDS011;9047;53.486;10.218;2024-02-16T09:11:06;5.15;;;2.25;;
17844;SDS011;9047;53.486;10.218;2024-02-16T09:13:33;4.43;;;2.13;;
17844;SDS011;9047;53.486;10.218;2024-02-16T09:16:01;4.53;;;2.38;;
17844;SDS011;9047;53.486;10.218;2024-02-16T09:18:31;5.15;;;2.10;;
17844;SDS011;9047;53.486;10.218;2024-02-16T09:20:58;4.95;;;2.22;;
17844;SDS011;9047;53.486;10.218;2024-02-16T09:23:25;4.40;;;2.17;;
17844;SDS011;9047;53.486;10.218;2024-02-16T09:25:53;5.70;;;2.42;;
17844;SDS011;9047;53.486;10.218;2024-02-16T09:28:21;4.97;;;2.17;;
17844;SDS011;9047;53.486;10.218;2024-02-16T09:30:48;2.97;;;2.05;;
17844;SDS011;9047;53.486;10.218;2024-02-16T09:33:15;3.63;;;2.15;;
17844;SDS011;9047;53.486;10.218;2024-02-16T09:35:45;4.68;;;2.10;;
17844;SDS011;9047;53.486;10.218;2024-02-16T09:38:12;4.20;;;2.00;;
17844;SDS011;9047;53.486;10.218;2024-02-16T09:40:39;4.18;;;2.08;;
17844;SDS011;9047;53.486;10.218;2024-02-16T09:43:06;3.97;;;2.10;;
17844;SDS011;9047;53.486;10.218;2024-02-16T09:45:33;4.20;;;2.25;;
17844;SDS011;9047;53.486;10.218;2024-02-16T09:48:01;6.07;;;2.25;;
17844;SDS011;9047;53.486;10.218;2024-02-16T09:50:31;3.55;;;2.10;;
17844;SDS011;9047;53.486;10.218;2024-02-16T09:53:02;6.47;;;2.30;;
17844;SDS011;9047;53.486;10.218;2024-02-16T09:55:33;4.03;;;1.98;;
17844;SDS011;9047;53.486;10.218;2024-02-16T09:58:00;4.28;;;2.30;;
17844;SDS011;9047;53.486;10.218;2024-02-16T10:00:30;3.72;;;2.15;;
17844;SDS011;9047;53.486;10.218;2024-02-16T10:02:57;6.30;;;2.30;;
17844;SDS011;9047;53.486;10.218;2024-02-16T10:05:23;5.75;;;3.30;;
17844;SDS011;9047;53.486;10.218;2024-02-16T10:07:51;3.33;;;2.30;;
17844;SDS011;9047;53.486;10.218;2024-02-16T10:10:31;3.28;;;2.05;;
17844;SDS011;9047;53.486;10.218;2024-02-16T10:13:02;4.00;;;1.92;;
17844;SDS011;9047;53.486;10.218;2024-02-16T10:15:30;3.33;;;2.00;;
17844;SDS011;9047;53.486;10.218;2024-02-16T10:17:57;4.22;;;2.20;;
17844;SDS011;9047;53.486;10.218;2024-02-16T10:20:24;3.80;;;2.00;;
17844;SDS011;9047;53.486;10.218;2024-02-16T10:23:05;3.67;;;1.95;;
17844;SDS011;9047;53.486;10.218;2024-02-16T10:25:34;4.70;;;2.10;;
17844;SDS011;9047;53.486;10.218;2024-02-16T10:28:05;4.82;;;2.05;;
17844;SDS011;9047;53.486;10.218;2024-02-16T10:30:34;4.18;;;2.00;;
17844;SDS011;9047;53.486;10.218;2024-02-16T10:33:04;3.25;;;1.83;;
17844;SDS011;9047;53.486;10.218;2024-02-16T10:35:32;3.60;;;1.80;;
17844;SDS011;9047;53.486;10.218;2024-02-16T10:38:04;4.13;;;1.65;;
17844;SDS011;9047;53.486;10.218;2024-02-16T10:40:38;5.38;;;1.80;;
17844;SDS011;9047;53.486;10.218;2024-02-16T10:43:10;4.05;;;2.10;;
17844;SDS011;9047;53.486;10.218;2024-02-16T10:45:42;3.58;;;1.60;;
17844;SDS011;9047;53.486;10.218;2024-02-16T10:48:10;2.97;;;1.83;;
17844;SDS011;9047;53.486;10.218;2024-02-16T10:50:37;5.10;;;1.85;;
17844;SDS011;9047;53.486;10.218;2024-02-16T10:53:06;4.97;;;1.70;;
17844;SDS011;9047;53.486;10.218;2024-02-16T10:55:40;3.00;;;1.90;;
17844;SDS011;9047;53.486;10.218;2024-02-16T10:58:11;4.03;;;1.88;;
17844;SDS011;9047;53.486;10.218;2024-02-16T11:00:49;4.50;;;1.80;;
17844;SDS011;9047;53.486;10.218;2024-02-16T11:03:17;5.60;;;2.67;;
17844;SDS011;9047;53.486;10.218;2024-02-16T11:05:48;7.65;;;3.88;;
17844;SDS011;9047;53.486;10.218;2024-02-16T11:08:15;6.85;;;3.58;;
17844;SDS011;9047;53.486;10.218;2024-02-16T11:10:55;8.07;;;3.92;;
17844;SDS011;9047;53.486;10.218;2024-02-16T11:13:26;7.60;;;3.70;;
17844;SDS011;9047;53.486;10.218;2024-02-16T11:15:57;5.72;;;3.40;;
17844;SDS011;9047;53.486;10.218;2024-02-16T11:18:28;5.45;;;2.10;;
17844;SDS011;9047;53.486;10.218;2024-02-16T11:20:59;4.20;;;2.13;;
17844;SDS011;9047;53.486;10.218;2024-02-16T11:23:28;3.17;;;1.92;;
17844;SDS011;9047;53.486;10.218;2024-02-16T11:26:03;3.95;;;1.77;;
17844;SDS011;9047;53.486;10.218;2024-02-16T11:28:34;3.05;;;1.70;;
17844;SDS011;9047;53.486;10.218;2024-02-16T11:31:04;6.10;;;2.10;;
17844;SDS011;9047;53.486;10.218;2024-02-16T11:33:32;3.22;;;1.70;;
17844;SDS011;9047;53.486;10.218;2024-02-16T11:36:02;4.00;;;1.75;;
17844;SDS011;9047;53.486;10.218;2024-02-16T11:38:33;3.83;;;1.80;;
17844;SDS011;9047;53.486;10.218;2024-02-16T11:41:02;3.95;;;1.90;;
17844;SDS011;9047;53.486;10.218;2024-02-16T11:43:30;4.78;;;1.83;;
17844;SDS011;9047;53.486;10.218;2024-02-16T11:45:59;3.60;;;1.85;;
17844;SDS011;9047;53.486;10.218;2024-02-16T11:48:27;6.70;;;2.15;;
17844;SDS011;9047;53.486;10.218;2024-02-16T11:51:00;3.88;;;1.67;;
17844;SDS011;9047;53.486;10.218;2024-02-16T11:53:28;5.38;;;2.10;;
17844;SDS011;9047;53.486;10.218;2024-02-16T11:55:57;4.43;;;2.00;;
17844;SDS011;9047;53.486;10.218;2024-02-16T11:58:26;3.72;;;2.13;;
17844;SDS011;9047;53.486;10.218;2024-02-16T12:00:56;3.72;;;2.40;;
17844;SDS011;9047;53.486;10.218;2024-02-16T12:03:25;4.78;;;2.30;;
17844;SDS011;9047;53.486;10.218;2024-02-16T12:05:55;4.43;;;2.10;;
17844;SDS011;9047;53.486;10.218;2024-02-16T12:08:23;5.70;;;2.30;;
17844;SDS011;9047;53.486;10.218;2024-02-16T12:10:51;5.05;;;2.08;;
17844;SDS011;9047;53.486;10.218;2024-02-16T12:13:19;3.65;;;2.10;;
17844;SDS011;9047;53.486;10.218;2024-02-16T12:15:49;4.50;;;2.10;;
17844;SDS011;9047;53.486;10.218;2024-02-16T12:18:20;4.85;;;2.10;;
17844;SDS011;9047;53.486;10.218;2024-02-16T12:20:58;3.30;;;2.10;;
17844;SDS011;9047;53.486;10.218;2024-02-16T12:23:25;3.55;;;1.92;;
17844;SDS011;9047;53.486;10.218;2024-02-16T12:25:52;3.47;;;2.00;;
17844;SDS011;9047;53.486;10.218;2024-02-16T12:28:23;8.52;;;2.20;;
17844;SDS011;9047;53.486;10.218;2024-02-16T12:30:54;3.03;;;2.13;;
17844;SDS011;9047;53.486;10.218;2024-02-16T12:33:23;4.53;;;2.22;;
17844;SDS011;9047;53.486;10.218;2024-02-16T12:35:51;5.15;;;2.30;;
17844;SDS011;9047;53.486;10.218;2024-02-16T12:38:19;5.13;;;2.50;;
17844;SDS011;9047;53.486;10.218;2024-02-16T12:40:48;5.65;;;2.60;;
17844;SDS011;9047;53.486;10.218;2024-02-16T12:43:15;6.07;;;2.20;;
17844;SDS011;9047;53.486;10.218;2024-02-16T12:45:45;4.18;;;2.78;;
17844;SDS011;9047;53.486;10.218;2024-02-16T12:48:14;5.68;;;2.35;;
17844;SDS011;9047;53.486;10.218;2024-02-16T12:50:45;6.13;;;2.70;;
17844;SDS011;9047;53.486;10.218;2024-02-16T12:53:14;4.95;;;2.55;;
17844;SDS011;9047;53.486;10.218;2024-02-16T12:55:44;5.32;;;2.25;;
17844;SDS011;9047;53.486;10.218;2024-02-16T12:58:14;6.55;;;2.30;;
17844;SDS011;9047;53.486;10.218;2024-02-16T13:00:44;8.05;;;2.40;;
17844;SDS011;9047;53.486;10.218;2024-02-16T13:03:17;4.65;;;2.40;;
17844;SDS011;9047;53.486;10.218;2024-02-16T13:05:44;5.82;;;2.60;;
17844;SDS011;9047;53.486;10.218;2024-02-16T13:08:15;5.85;;;2.75;;
17844;SDS011;9047;53.486;10.218;2024-02-16T13:10:48;7.43;;;2.85;;
17844;SDS011;9047;53.486;10.218;2024-02-16T13:13:15;4.57;;;2.40;;
17844;SDS011;9047;53.486;10.218;2024-02-16T13:15:47;8.25;;;2.70;;
17844;SDS011;9047;53.486;10.218;2024-02-16T13:18:15;6.47;;;2.60;;
17844;SDS011;9047;53.486;10.218;2024-02-16T13:20:43;4.22;;;2.60;;
17844;SDS011;9047;53.486;10.218;2024-02-16T13:23:12;5.07;;;2.55;;
17844;SDS011;9047;53.486;10.218;2024-02-16T13:25:39;5.45;;;2.50;;
17844;SDS011;9047;53.486;10.218;2024-02-16T13:28:06;4.35;;;2.40;;
17844;SDS011;9047;53.486;10.218;2024-02-16T13:30:34;7.07;;;2.80;;
17844;SDS011;9047;53.486;10.218;2024-02-16T13:33:02;5.05;;;2.60;;
17844;SDS011;9047;53.486;10.218;2024-02-16T13:35:31;6.72;;;2.70;;
17844;SDS011;9047;53.486;10.218;2024-02-16T13:38:00;5.82;;;2.58;;
17844;SDS011;9047;53.486;10.218;2024-02-16T13:40:27;8.02;;;3.00;;
17844;SDS011;9047;53.486;10.218;2024-02-16T13:42:58;8.38;;;3.00;;
17844;SDS011;9047;53.486;10.218;2024-02-16T13:45:27;4.43;;;2.70;;
17844;SDS011;9047;53.486;10.218;2024-02-16T13:47:55;7.22;;;3.38;;
17844;SDS011;9047;53.486;10.218;2024-02-16T13:50:23;6.45;;;2.95;;
17844;SDS011;9047;53.486;10.218;2024-02-16T13:52:53;4.75;;;2.88;;
17844;SDS011;9047;53.486;10.218;2024-02-16T13:55:20;7.45;;;3.30;;
17844;SDS011;9047;53.486;10.218;2024-02-16T13:57:47;7.22;;;3.33;;
17844;SDS011;9047;53.486;10.218;2024-02-16T14:00:21;9.50;;;3.78;;
17844;SDS011;9047;53.486;10.218;2024-02-16T14:02:49;7.50;;;3.70;;
17844;SDS011;9047;53.486;10.218;2024-02-16T14:05:17;5.97;;;3.35;;
17844;SDS011;9047;53.486;10.218;2024-02-16T14:07:45;7.68;;;3.50;;
17844;SDS011;9047;53.486;10.218;2024-02-16T14:10:14;5.85;;;3.10;;
17844;SDS011;9047;53.486;10.218;2024-02-16T14:12:40;6.30;;;3.35;;
17844;SDS011;9047;53.486;10.218;2024-02-16T14:15:08;8.15;;;3.10;;
17844;SDS011;9047;53.486;10.218;2024-02-16T14:17:40;5.53;;;2.92;;
17844;SDS011;9047;53.486;10.218;2024-02-16T14:20:07;6.45;;;2.97;;
17844;SDS011;9047;53.486;10.218;2024-02-16T14:22:36;7.53;;;4.18;;
17844;SDS011;9047;53.486;10.218;2024-02-16T14:25:03;7.43;;;3.35;;
17844;SDS011;9047;53.486;10.218;2024-02-16T14:27:32;9.27;;;3.60;;
17844;SDS011;9047;53.486;10.218;2024-02-16T14:29:59;7.63;;;3.33;;
17844;SDS011;9047;53.486;10.218;2024-02-16T14:32:26;8.02;;;3.70;;
17844;SDS011;9047;53.486;10.218;2024-02-16T14:34:53;8.43;;;3.90;;
17844;SDS011;9047;53.486;10.218;2024-02-16T14:37:20;6.38;;;3.40;;
17844;SDS011;9047;53.486;10.218;2024-02-16T14:39:47;6.85;;;3.60;;
17844;SDS011;9047;53.486;10.218;2024-02-16T14:42:14;6.82;;;3.60;;
17844;SDS011;9047;53.486;10.218;2024-02-16T14:44:42;6.70;;;3.83;;
17844;SDS011;9047;53.486;10.218;2024-02-16T14:47:09;10.05;;;4.03;;
17844;SDS011;9047;53.486;10.218;2024-02-16T14:49:51;8.73;;;3.40;;
17844;SDS011;9047;53.486;10.218;2024-02-16T14:52:18;8.30;;;3.50;;
17844;SDS011;9047;53.486;10.218;2024-02-16T14:54:45;9.10;;;3.63;;
17844;SDS011;9047;53.486;10.218;2024-02-16T14:57:13;5.75;;;3.30;;